Time;durP1;ratioP1;P1;durP2;ratioP2;P2;SDS_P1;SDS_P2;PMS_P1;PMS_P2;Temp;Humidity;BMP_temperature;BMP_pressure;BME280_temperature;BME280_humidity;BME280_pressure;Samples;Min_cycle;Max_cycle;Signal;HPM_P1;HPM_P2
2022/05/27 00:01:53;;;;;;;;;3.00;3.00;;;;;17.53;54.68;102282.09;5073145;28;45385;-68
2022/05/27 00:04:18;;;;;;;;;2.00;2.00;;;;;17.33;55.11;102295.09;5072853;27;45167;-68
2022/05/27 00:06:44;;;;;;;;;0.00;0.00;;;;;17.28;55.81;102289.19;5065871;28;45479;-69
2022/05/27 00:09:09;;;;;;;;;3.33;2.67;;;;;17.34;55.27;102283.06;5074412;28;45278;-68
2022/05/27 00:11:35;;;;;;;;;1.00;1.00;;;;;17.29;55.53;102284.56;5070332;28;45352;-68
2022/05/27 00:14:01;;;;;;;;;1.67;1.67;;;;;17.28;55.88;102272.72;5080007;27;45413;-69
2022/05/27 00:16:28;;;;;;;;;2.67;2.67;;;;;17.36;55.38;102280.19;5069395;28;45252;-69
2022/05/27 00:18:54;;;;;;;;;2.00;2.00;;;;;17.33;55.92;102269.50;5078885;27;45471;-68
2022/05/27 00:21:19;;;;;;;;;3.33;2.00;;;;;17.22;56.31;102280.72;5067583;28;46708;-70
2022/05/27 00:23:44;;;;;;;;;3.00;1.67;;;;;17.08;56.58;102272.00;5076861;27;45417;-68
2022/05/27 00:26:10;;;;;;;;;3.00;3.00;;;;;17.24;56.76;102292.44;5066784;28;45344;-68
2022/05/27 00:28:35;;;;;;;;;8.67;6.67;;;;;17.38;56.26;102273.53;5075580;27;45323;-68
2022/05/27 00:31:03;;;;;;;;;6.33;4.00;;;;;17.44;56.12;102270.16;5065488;28;46238;-68
2022/05/27 00:33:28;;;;;;;;;4.00;2.67;;;;;17.48;56.27;102262.44;5083837;27;45290;-68
2022/05/27 00:35:54;;;;;;;;;1.00;1.00;;;;;17.46;55.55;102258.97;5088763;27;45237;-68
2022/05/27 00:38:19;;;;;;;;;3.00;3.00;;;;;17.23;56.59;102246.75;5082506;27;45289;-68
2022/05/27 00:40:54;;;;;;;;;4.00;2.00;;;;;17.13;56.69;102250.41;5073942;27;45498;-67
2022/05/27 00:43:20;;;;;;;;;12.33;8.67;;;;;17.15;56.77;102258.50;5074102;28;45742;-69
2022/05/27 00:45:57;;;;;;;;;2.00;2.00;;;;;17.07;57.22;102253.78;5072688;27;45242;-68
2022/05/27 00:48:22;;;;;;;;;3.00;2.00;;;;;16.95;57.53;102243.16;5081231;28;45263;-68
2022/05/27 00:50:49;;;;;;;;;2.00;2.00;;;;;16.87;57.72;102257.66;5070674;27;46420;-68
2022/05/27 00:53:24;;;;;;;;;4.67;2.00;;;;;16.69;58.24;102248.50;5095155;27;45432;-68
2022/05/27 00:55:56;;;;;;;;;2.33;1.33;;;;;16.72;58.77;102253.69;5069422;28;45310;-68
2022/05/27 00:58:30;;;;;;;;;1.00;1.00;;;;;16.61;58.51;102240.16;5079018;27;45692;-68
2022/05/27 01:00:56;;;;;;;;;1.00;1.00;;;;;16.72;58.32;102253.69;5083222;27;46062;-69
2022/05/27 01:03:22;;;;;;;;;1.00;1.00;;;;;16.77;58.70;102251.34;5083548;28;45314;-70
2022/05/27 01:05:48;;;;;;;;;1.00;1.00;;;;;16.74;58.95;102251.63;5066966;28;45307;-68
2022/05/27 01:08:16;;;;;;;;;1.33;1.33;;;;;16.80;58.59;102248.31;5075060;28;45412;-70
2022/05/27 01:11:10;;;;;;;;;1.00;1.00;;;;;16.73;58.31;102256.25;5081843;27;47737;-67
2022/05/27 01:13:57;;;;;;;;;2.00;1.00;;;;;16.64;59.28;102248.09;5073478;28;45420;-70
2022/05/27 01:16:45;;;;;;;;;2.00;2.00;;;;;16.53;59.33;102238.13;5067867;28;45436;-67
2022/05/27 01:22:34;;;;;;;;;2.33;2.33;;;;;16.51;60.00;102253.03;5071513;28;45348;-68
2022/05/27 01:25:32;;;;;;;;;2.00;2.00;;;;;16.45;60.17;102250.88;5068834;27;45298;-68
2022/05/27 01:28:29;;;;;;;;;4.00;4.00;;;;;16.44;60.18;102249.16;5079470;27;45350;-70
2022/05/27 01:31:09;;;;;;;;;2.00;2.00;;;;;16.31;60.84;102244.84;5073161;28;45358;-67
2022/05/27 01:34:15;;;;;;;;;5.00;2.00;;;;;16.33;60.61;102248.31;5071415;28;46547;-68
2022/05/27 01:37:06;;;;;;;;;2.67;2.00;;;;;16.26;60.97;102247.19;5070819;27;45654;-68
2022/05/27 01:39:37;;;;;;;;;0.00;0.00;;;;;16.27;60.76;102248.94;5065505;28;45395;-68
2022/05/27 01:42:18;;;;;;;;;2.33;1.67;;;;;16.27;60.91;102245.31;5072596;28;45635;-68
2022/05/27 01:44:49;;;;;;;;;3.33;2.00;;;;;16.29;61.10;102246.03;5077318;27;45505;-68
2022/05/27 01:47:22;;;;;;;;;2.00;2.00;;;;;16.32;60.96;102240.25;5074290;28;45356;-68
2022/05/27 01:49:54;;;;;;;;;4.00;2.33;;;;;16.28;61.10;102244.31;5073548;28;45353;-68
2022/05/27 01:52:29;;;;;;;;;13.33;13.33;;;;;16.23;61.80;102233.75;5075412;28;45336;-68
2022/05/27 01:55:31;;;;;;;;;17.00;15.00;;;;;16.17;62.10;102244.47;5074171;27;47251;-68
2022/05/27 01:58:08;;;;;;;;;28.00;22.50;;;;;16.06;62.06;102240.03;5067977;28;45331;-68
2022/05/27 02:00:35;;;;;;;;;22.75;22.00;;;;;16.05;62.33;102243.78;5082229;28;45437;-68
2022/05/27 02:03:12;;;;;;;;;41.00;30.00;;;;;16.05;62.40;102252.00;5067975;28;45663;-71
2022/05/27 02:05:50;;;;;;;;;28.75;27.50;;;;;15.96;62.26;102228.22;5067227;27;45644;-67
2022/05/27 02:08:23;;;;;;;;;20.00;17.50;;;;;15.91;62.87;102247.84;5074441;28;45333;-69
2022/05/27 02:10:48;;;;;;;;;18.00;16.00;;;;;15.95;62.90;102248.41;5070132;28;45358;-68
2022/05/27 02:13:26;;;;;;;;;16.67;15.00;;;;;16.01;62.49;102231.38;5082197;28;45528;-68
2022/05/27 02:15:53;;;;;;;;;12.00;12.00;;;;;15.99;62.09;102236.16;5062997;27;46309;-68
2022/05/27 02:18:31;;;;;;;;;6.33;5.00;;;;;15.96;62.99;102239.19;5080899;27;45335;-68
2022/05/27 02:21:06;;;;;;;;;10.00;8.00;;;;;16.01;62.70;102245.06;5070226;28;45543;-68
2022/05/27 02:23:39;;;;;;;;;6.00;4.67;;;;;15.92;62.94;102245.97;5075906;28;45465;-68
2022/05/27 02:26:19;;;;;;;;;9.33;7.00;;;;;16.01;62.21;102242.34;5062313;28;47215;-68
2022/05/27 02:28:50;;;;;;;;;5.00;5.00;;;;;16.01;62.08;102252.44;5073082;28;45273;-71
2022/05/27 02:31:25;;;;;;;;;6.00;5.00;;;;;16.08;62.79;102243.47;5065821;28;45474;-68
2022/05/27 02:36:51;;;;;;;;;3.00;3.00;;;;;16.23;62.31;102241.13;5072740;28;45267;-67
2022/05/27 02:39:17;;;;;;;;;2.00;2.00;;;;;16.39;61.51;102240.50;5084849;28;45342;-68
2022/05/27 02:42:12;;;;;;;;;3.00;3.00;;;;;16.28;62.09;102244.31;5072634;27;45427;-68
2022/05/27 02:44:50;;;;;;;;;2.00;2.00;;;;;16.31;61.91;102244.84;5076717;28;45365;-69
2022/05/27 02:47:15;;;;;;;;;2.67;1.33;;;;;16.34;61.91;102243.69;5077167;28;45246;-68
2022/05/27 02:50:02;;;;;;;;;1.00;1.00;;;;;16.34;61.63;102244.56;5067635;28;45443;-69
2022/05/27 02:52:30;;;;;;;;;3.00;3.00;;;;;16.42;61.71;102245.69;5077770;28;45167;-68
2022/05/27 02:55:04;;;;;;;;;2.67;2.67;;;;;16.39;61.15;102251.47;5074680;28;45487;-68
2022/05/27 02:57:49;;;;;;;;;3.67;3.00;;;;;16.39;61.62;102246.84;5075236;28;47267;-68
2022/05/27 03:00:35;;;;;;;;;5.67;4.00;;;;;16.13;61.98;102241.19;5072944;28;45349;-68
2022/05/27 03:03:01;;;;;;;;;3.33;1.67;;;;;16.23;62.20;102242.00;5075539;28;45411;-71
2022/05/27 03:06:10;;;;;;;;;3.33;2.00;;;;;16.08;61.81;102210.56;5088272;27;45652;-68
2022/05/27 03:09:15;;;;;;;;;3.00;3.00;;;;;16.24;61.76;102248.34;5077796;27;45308;-68
2022/05/27 03:11:55;;;;;;;;;5.00;3.00;;;;;16.10;62.45;102257.03;5080627;28;45421;-69
2022/05/27 03:14:23;;;;;;;;;4.67;4.67;;;;;16.09;62.08;102242.47;5070435;28;45347;-68
2022/05/27 03:17:03;;;;;;;;;3.67;3.67;;;;;16.05;62.47;102243.78;5073525;28;45303;-68
2022/05/27 03:19:43;;;;;;;;;3.00;3.00;;;;;16.02;62.02;102246.81;5076571;27;46600;-68
2022/05/27 03:22:11;;;;;;;;;4.67;4.67;;;;;15.92;62.24;102245.97;5067984;28;45573;-67
2022/05/27 03:24:58;;;;;;;;;4.33;4.33;;;;;16.00;61.81;102246.09;5075052;27;45343;-68
2022/05/27 03:27:46;;;;;;;;;5.00;5.00;;;;;15.88;61.67;102244.53;5076703;28;45547;-68
2022/05/27 03:30:19;;;;;;;;;9.00;6.00;;;;;15.87;61.58;102238.19;5068452;27;45415;-68
2022/05/27 03:32:55;;;;;;;;;3.67;2.33;;;;;15.63;61.84;102243.28;5075781;28;45300;-68
2022/05/27 03:35:59;;;;;;;;;11.33;9.67;;;;;15.77;61.45;102244.69;5066093;27;45330;-68
2022/05/27 03:38:56;;;;;;;;;7.67;6.67;;;;;15.76;61.62;102238.34;5054049;28;45643;-68
2022/05/27 03:41:28;;;;;;;;;9.00;9.00;;;;;15.93;60.47;102244.94;5073321;27;45259;-68
2022/05/27 03:43:54;;;;;;;;;11.00;9.33;;;;;15.95;60.79;102238.31;5077771;28;45564;-68
2022/05/27 03:46:35;;;;;;;;;8.33;6.67;;;;;15.91;61.02;102252.47;5071400;28;45369;-69
2022/05/27 03:49:01;;;;;;;;;12.33;11.00;;;;;15.98;61.47;102242.66;5079420;28;45246;-68
2022/05/27 03:51:35;;;;;;;;;14.67;12.00;;;;;16.09;60.82;102250.69;5070640;27;46394;-69
2022/05/27 03:54:03;;;;;;;;;16.67;15.67;;;;;16.09;61.01;102244.34;5081022;27;45516;-68
2022/05/27 03:56:40;;;;;;;;;15.67;15.67;;;;;16.13;61.01;102246.66;5069587;27;45555;-67
2022/05/27 03:59:08;;;;;;;;;10.67;10.67;;;;;16.24;60.55;102249.22;5079312;28;45405;-68
2022/05/27 04:01:36;;;;;;;;;5.67;5.67;;;;;16.25;60.64;102248.19;5069792;28;46196;-68
2022/05/27 04:04:04;;;;;;;;;10.00;8.00;;;;;16.17;60.80;102248.06;5082302;28;45313;-68
2022/05/27 04:06:30;;;;;;;;;7.67;7.00;;;;;16.18;61.38;102243.47;5066768;28;45259;-68
2022/05/27 04:08:59;;;;;;;;;7.00;7.00;;;;;16.29;60.98;102246.03;5074180;27;45388;-68
2022/05/27 04:11:27;;;;;;;;;9.33;9.33;;;;;16.26;61.23;102243.59;5068605;28;45477;-69
2022/05/27 04:13:53;;;;;;;;;6.67;6.67;;;;;16.23;61.80;102247.47;5080563;27;45360;-68
2022/05/27 04:16:18;;;;;;;;;8.00;8.00;;;;;16.10;61.81;102246.94;5067932;28;45530;-68
2022/05/27 04:18:44;;;;;;;;;4.67;3.33;;;;;15.95;61.85;102238.31;5079423;27;45609;-70
2022/05/27 04:21:10;;;;;;;;;7.33;5.67;;;;;15.93;62.29;102243.06;5066145;28;46227;-68
2022/05/27 04:23:36;;;;;;;;;5.67;4.67;;;;;15.95;62.38;102259.38;5080679;28;45468;-68
2022/05/27 04:26:02;;;;;;;;;7.33;4.00;;;;;15.94;62.64;102244.81;5075043;28;45511;-69
2022/05/27 04:28:27;;;;;;;;;8.00;6.00;;;;;15.92;62.92;102255.06;5073847;28;45349;-68
2022/05/27 04:30:52;;;;;;;;;5.67;5.00;;;;;16.05;62.41;102253.88;5074164;27;45388;-67
2022/05/27 04:33:18;;;;;;;;;3.33;3.33;;;;;16.01;62.51;102246.94;5081534;28;45401;-69
2022/05/27 04:35:43;;;;;;;;;5.00;5.00;;;;;16.03;62.23;102266.88;5074651;28;45296;-68
2022/05/27 04:38:09;;;;;;;;;5.00;4.67;;;;;16.00;62.96;102257.06;5080099;28;45411;-68
2022/05/27 04:40:35;;;;;;;;;8.33;7.33;;;;;15.99;62.85;102263.56;5074017;27;45447;-68
2022/05/27 04:43:02;;;;;;;;;6.00;5.00;;;;;16.06;62.38;102266.59;5076494;28;45381;-67
2022/05/27 04:45:28;;;;;;;;;3.00;3.00;;;;;16.05;62.72;102249.28;5090391;27;45260;-68
2022/05/27 04:47:53;;;;;;;;;9.00;6.00;;;;;16.06;62.47;102251.00;5076822;28;45394;-67
2022/05/27 04:50:19;;;;;;;;;10.00;7.67;;;;;16.05;62.35;102259.38;5072997;28;45345;-68
2022/05/27 04:52:45;;;;;;;;;10.00;9.00;;;;;15.96;62.80;102255.63;5075570;28;45384;-68
2022/05/27 04:55:13;;;;;;;;;6.00;5.67;;;;;15.78;63.37;102252.75;5072259;28;45496;-67
2022/05/27 04:57:46;;;;;;;;;13.00;10.00;;;;;16.05;62.68;102273.06;5073843;28;45422;-68
2022/05/27 05:00:37;;;;;;;;;11.67;8.00;;;;;16.17;62.80;102253.56;5070776;28;45615;-68
2022/05/27 05:03:03;;;;;;;;;6.67;6.00;;;;;16.15;63.12;102255.56;5068006;28;45545;-68
2022/05/27 05:05:30;;;;;;;;;7.00;5.33;;;;;16.22;62.67;102259.47;5069998;27;45405;-68
2022/05/27 05:07:59;;;;;;;;;10.33;9.67;;;;;16.16;63.28;102251.81;5072650;28;45610;-68
2022/05/27 05:10:26;;;;;;;;;11.00;10.00;;;;;16.25;62.19;102261.03;5083707;28;45191;-66
2022/05/27 05:12:51;;;;;;;;;14.00;8.00;;;;;16.24;62.48;102271.16;5081077;28;45320;-67
2022/05/27 05:15:19;;;;;;;;;10.33;8.33;;;;;16.17;62.50;102256.31;5069221;27;45392;-67
2022/05/27 05:17:45;;;;;;;;;10.00;8.00;;;;;15.99;63.16;102254.47;5070340;28;45490;-67
2022/05/27 05:20:13;;;;;;;;;7.00;6.00;;;;;15.99;63.26;102269.06;5077788;28;45451;-69
2022/05/27 05:22:39;;;;;;;;;9.00;8.00;;;;;16.04;63.35;102274.09;5074620;28;45353;-68
2022/05/27 05:25:05;;;;;;;;;13.33;9.00;;;;;16.14;62.86;102263.97;5068176;27;45369;-68
2022/05/27 05:27:31;;;;;;;;;8.67;8.67;;;;;16.18;62.92;102266.25;5075408;28;45463;-68
2022/05/27 05:29:57;;;;;;;;;7.67;7.67;;;;;16.19;63.29;102262.50;5068078;28;45428;-67
2022/05/27 05:32:23;;;;;;;;;14.00;10.33;;;;;16.03;63.63;102255.91;5074543;28;45365;-68
2022/05/27 05:34:51;;;;;;;;;10.67;10.67;;;;;16.11;63.45;102259.66;5081474;27;45405;-68
2022/05/27 05:37:17;;;;;;;;;9.67;9.67;;;;;16.04;63.65;102260.38;5073354;28;45475;-68
2022/05/27 05:39:44;;;;;;;;;10.67;10.67;;;;;16.12;63.86;102261.38;5080154;27;46146;-68
2022/05/27 05:42:09;;;;;;;;;18.00;14.33;;;;;16.07;63.58;102255.44;5065463;28;45354;-70
2022/05/27 05:44:35;;;;;;;;;14.00;12.33;;;;;16.07;63.82;102257.34;5078853;27;45253;-67
2022/05/27 05:47:02;;;;;;;;;11.00;11.00;;;;;16.09;63.86;102261.66;5071930;28;45296;-68
2022/05/27 05:49:27;;;;;;;;;17.33;14.00;;;;;16.15;63.58;102261.06;5076463;27;45331;-68
2022/05/27 05:51:54;;;;;;;;;13.00;10.00;;;;;16.13;63.38;102268.59;5064324;28;45456;-68
2022/05/27 05:54:21;;;;;;;;;14.00;14.00;;;;;16.17;63.25;102270.00;5091092;27;45374;-69
2022/05/27 05:56:48;;;;;;;;;14.67;13.00;;;;;16.17;63.92;102260.91;5067298;28;45334;-68
2022/05/27 05:59:15;;;;;;;;;13.33;12.33;;;;;15.97;64.18;102257.38;5072165;28;48104;-68
2022/05/27 06:01:42;;;;;;;;;23.33;18.33;;;;;16.05;64.26;102264.84;5068525;28;45449;-68
2022/05/27 06:04:08;;;;;;;;;17.67;15.00;;;;;16.12;63.67;102266.00;5095159;27;45290;-68
2022/05/27 06:06:33;;;;;;;;;25.00;17.67;;;;;16.16;63.79;102262.78;5067862;28;45655;-68
2022/05/27 06:08:59;;;;;;;;;19.33;18.00;;;;;16.13;63.58;102264.97;5086304;27;48499;-68
2022/05/27 06:11:24;;;;;;;;;22.33;21.33;;;;;16.03;64.44;102273.22;5066215;28;45405;-68
2022/05/27 06:13:50;;;;;;;;;16.67;15.67;;;;;15.99;64.25;102266.31;5078539;27;45250;-68
2022/05/27 06:16:16;;;;;;;;;20.67;20.00;;;;;16.10;64.26;102263.41;5065478;28;45325;-68
2022/05/27 06:18:41;;;;;;;;;20.75;20.75;;;;;16.16;63.65;102268.28;5077598;27;45348;-69
2022/05/27 06:21:06;;;;;;;;;21.00;19.25;;;;;15.94;64.69;102263.13;5063322;28;45470;-68
2022/05/27 06:23:32;;;;;;;;;22.67;21.00;;;;;16.05;64.48;102264.84;5076648;27;45628;-68
2022/05/27 06:26:01;;;;;;;;;27.33;22.00;;;;;16.00;64.61;102265.28;5061505;28;45370;-68
2022/05/27 06:36:41;;;;;;;;;18.67;17.33;;;;;16.20;64.43;102280.69;5070552;28;45504;-68
2022/05/27 06:39:10;;;;;;;;;16.67;16.00;;;;;16.17;64.73;102280.97;5071906;28;47324;-68
2022/05/27 06:41:36;;;;;;;;;18.33;14.00;;;;;15.90;65.10;102276.28;5064087;28;45512;-67
2022/05/27 06:44:03;;;;;;;;;11.00;11.00;;;;;15.96;65.34;102280.31;5078317;27;45490;-68
2022/05/27 06:46:29;;;;;;;;;17.00;14.00;;;;;16.12;64.68;102288.78;5084082;27;45556;-68
2022/05/27 06:48:55;;;;;;;;;17.67;17.00;;;;;16.05;64.94;102281.31;5071078;28;46924;-68
2022/05/27 06:51:20;;;;;;;;;20.67;16.67;;;;;16.23;64.34;102266.69;5066594;27;45484;-68
2022/05/27 06:53:46;;;;;;;;;16.00;16.00;;;;;16.22;64.43;102281.41;5092820;27;45517;-69
2022/05/27 06:56:11;;;;;;;;;16.00;15.00;;;;;16.38;63.92;102277.16;5081338;27;45388;-68
2022/05/27 06:58:37;;;;;;;;;20.00;18.33;;;;;16.55;63.83;102279.16;5081299;27;45357;-68
2022/05/27 07:01:04;;;;;;;;;6.67;6.67;;;;;16.42;63.54;102275.88;5064479;27;45302;-68
2022/05/27 07:03:29;;;;;;;;;11.00;10.00;;;;;16.36;64.25;102267.22;5074133;28;45301;-68
2022/05/27 07:05:54;;;;;;;;;15.00;13.00;;;;;16.60;63.76;102265.81;5064119;27;45602;-67
2022/05/27 07:08:20;;;;;;;;;11.00;8.67;;;;;16.94;62.83;102269.75;5080374;28;45827;-68
2022/05/27 07:10:45;;;;;;;;;14.67;11.67;;;;;17.16;61.62;102262.97;5063773;27;45416;-68
2022/05/27 07:13:12;;;;;;;;;10.33;10.33;;;;;17.40;60.96;102273.34;5078656;28;45372;-68
2022/05/27 07:15:38;;;;;;;;;10.67;10.33;;;;;17.43;60.80;102270.28;5081015;28;45275;-68
2022/05/27 07:18:06;;;;;;;;;11.00;10.00;;;;;17.70;60.75;102270.25;5078206;28;45481;-68
2022/05/27 07:20:32;;;;;;;;;10.00;9.00;;;;;17.71;59.87;102271.97;5080369;28;45473;-68
2022/05/27 07:22:57;;;;;;;;;9.00;9.00;;;;;17.71;60.36;102277.47;5079506;28;45448;-68
2022/05/27 07:25:23;;;;;;;;;10.67;10.67;;;;;17.57;60.16;102278.00;5066953;27;45290;-67
2022/05/27 07:27:48;;;;;;;;;9.67;8.67;;;;;17.74;59.97;102268.94;5079215;28;45494;-67
2022/05/27 07:30:16;;;;;;;;;13.00;12.00;;;;;17.96;59.24;102277.69;5078149;27;45373;-67
2022/05/27 07:32:43;;;;;;;;;11.67;10.67;;;;;17.88;59.65;102286.75;5077546;28;45407;-67
2022/05/27 07:35:10;;;;;;;;;10.33;10.00;;;;;17.59;60.29;102281.47;5078103;27;45271;-66
2022/05/27 07:37:36;;;;;;;;;13.33;13.33;;;;;17.41;60.95;102280.56;5077318;28;45812;-67
2022/05/27 07:40:01;;;;;;;;;13.33;12.00;;;;;17.62;61.02;102286.66;5075689;27;45302;-69
2022/05/27 07:42:27;;;;;;;;;13.67;10.33;;;;;17.84;59.96;102274.31;5081120;28;45321;-69
2022/05/27 07:44:52;;;;;;;;;10.00;10.00;;;;;18.03;59.71;102270.53;5075399;27;45271;-70
2022/05/27 07:47:18;;;;;;;;;12.33;12.00;;;;;18.02;58.69;102266.06;5075371;28;46335;-69
2022/05/27 07:49:44;;;;;;;;;10.67;10.67;;;;;17.90;59.58;102285.53;5088944;27;45395;-69
2022/05/27 07:52:10;;;;;;;;;11.67;10.00;;;;;17.99;58.78;102280.09;5070257;28;45447;-70
2022/05/27 07:54:35;;;;;;;;;10.33;10.33;;;;;17.98;59.13;102283.88;5072992;27;45408;-69
2022/05/27 07:57:02;;;;;;;;;13.33;11.33;;;;;18.02;59.02;102271.56;5073053;28;45838;-69
2022/05/27 07:59:27;;;;;;;;;11.00;10.67;;;;;18.01;59.28;102273.44;5089292;27;45421;-69
2022/05/27 08:01:53;;;;;;;;;10.00;9.00;;;;;17.91;58.88;102267.16;5079976;27;45492;-69
2022/05/27 08:04:18;;;;;;;;;16.00;12.00;;;;;17.95;59.40;102282.31;5071527;27;45471;-70
2022/05/27 08:06:45;;;;;;;;;11.33;11.33;;;;;18.01;58.45;102280.81;5070602;28;45321;-69
2022/05/27 08:09:14;;;;;;;;;16.00;12.33;;;;;18.12;59.04;102272.28;5079580;27;45326;-69
2022/05/27 08:11:40;;;;;;;;;14.33;12.00;;;;;17.96;58.76;102281.31;5069920;28;45373;-67
2022/05/27 08:14:06;;;;;;;;;12.00;9.33;;;;;17.94;59.19;102274.22;5077584;27;45465;-67
2022/05/27 08:16:33;;;;;;;;;13.67;11.67;;;;;18.28;58.85;102276.03;5068189;28;46439;-67
2022/05/27 08:18:59;;;;;;;;;11.33;10.00;;;;;18.21;58.83;102266.69;5076032;27;45334;-70
2022/05/27 08:21:25;;;;;;;;;14.67;12.00;;;;;18.18;58.84;102282.69;5067370;28;45247;-69
2022/05/27 08:23:50;;;;;;;;;12.33;11.00;;;;;18.35;59.10;102281.75;5075214;27;45568;-70
2022/05/27 08:26:16;;;;;;;;;10.67;9.00;;;;;18.55;57.88;102274.16;5066031;28;46351;-70
2022/05/27 08:28:42;;;;;;;;;10.33;9.00;;;;;18.56;58.32;102282.25;5097187;27;45286;-70
2022/05/27 08:31:08;;;;;;;;;11.00;9.33;;;;;18.14;58.90;102293.13;5072826;28;45342;-69
2022/05/27 08:39:08;;;;;;;;;12.33;11.67;;;;;18.40;59.37;102284.03;5078557;28;45470;-70
2022/05/27 08:41:40;;;;;;;;;9.67;9.67;;;;;18.26;59.31;102278.06;5081656;27;45663;-70
2022/05/27 08:44:43;;;;;;;;;10.00;10.00;;;;;18.08;59.97;102284.66;5080522;27;45408;-70
2022/05/27 08:47:37;;;;;;;;;12.67;10.33;;;;;18.17;60.17;102283.69;5097625;27;47054;-70
2022/05/27 08:50:22;;;;;;;;;10.00;10.00;;;;;18.46;58.98;102280.63;5069796;28;45198;-70
2022/05/27 08:52:57;;;;;;;;;9.33;8.67;;;;;18.34;59.97;102276.44;5066660;28;45895;-70
2022/05/27 09:01:24;;;;;;;;;15.67;14.33;;;;;18.24;60.59;102276.53;5066229;28;45259;-70
2022/05/27 09:04:09;;;;;;;;;11.67;8.00;;;;;18.13;60.47;102290.53;5082661;27;45275;-69
2022/05/27 09:06:41;;;;;;;;;9.67;8.00;;;;;18.10;61.11;102285.38;5068117;28;45460;-70
2022/05/27 09:09:20;;;;;;;;;8.67;7.00;;;;;17.81;62.08;102275.50;5078997;27;46189;-67
2022/05/27 09:12:01;;;;;;;;;11.67;9.33;;;;;18.10;61.78;102286.22;5069424;28;45313;-68
2022/05/27 09:14:33;;;;;;;;;6.67;6.67;;;;;18.29;60.88;102280.50;5076177;27;45500;-69
2022/05/27 09:17:07;;;;;;;;;14.00;11.33;;;;;18.25;61.20;102286.50;5064661;28;45312;-69
2022/05/27 09:19:47;;;;;;;;;9.33;7.33;;;;;18.23;61.55;102286.66;5073008;27;46485;-68
2022/05/27 09:22:45;;;;;;;;;8.67;5.00;;;;;18.16;61.52;102292.97;5077317;28;45336;-68
2022/05/27 09:25:19;;;;;;;;;11.33;9.67;;;;;18.40;61.06;102286.78;5066094;27;45416;-69
2022/05/27 09:28:05;;;;;;;;;8.00;7.00;;;;;18.49;60.51;102285.78;5077170;28;45431;-69
2022/05/27 09:30:34;;;;;;;;;6.33;6.33;;;;;18.62;60.78;102284.38;5074889;27;45498;-68
2022/05/27 09:33:03;;;;;;;;;8.00;8.00;;;;;18.75;60.54;102280.31;5075336;28;45456;-69
2022/05/27 09:35:50;;;;;;;;;9.00;8.00;;;;;19.05;59.30;102279.75;5080018;28;45332;-68
2022/05/27 09:38:24;;;;;;;;;7.67;5.67;;;;;19.12;58.69;102272.53;5078390;27;45304;-68
2022/05/27 09:40:52;;;;;;;;;8.67;7.00;;;;;19.26;58.69;102284.81;5070285;28;45662;-68
2022/05/27 09:43:42;;;;;;;;;6.00;6.00;;;;;19.33;59.25;102280.34;5075971;28;45712;-69
2022/05/27 09:46:28;;;;;;;;;9.67;7.00;;;;;19.55;58.36;102276.97;5078175;28;45440;-73
2022/05/27 09:48:58;;;;;;;;;9.00;8.00;;;;;19.54;57.08;102277.13;5071467;28;45533;-69
2022/05/27 09:51:25;;;;;;;;;8.00;8.00;;;;;19.50;57.67;102271.13;5065747;28;45808;-69
2022/05/27 09:53:55;;;;;;;;;6.00;5.00;;;;;19.60;58.00;102276.47;5079058;27;45286;-69
2022/05/27 09:57:13;;;;;;;;;8.00;7.00;;;;;19.88;56.69;102264.06;5067090;28;45595;-70
2022/05/27 09:59:39;;;;;;;;;9.67;6.33;;;;;20.17;55.95;102275.41;5057801;28;45359;-70
2022/05/27 10:02:25;;;;;;;;;6.33;6.00;;;;;20.12;56.00;102277.84;5071500;28;45299;-70
2022/05/27 10:04:52;;;;;;;;;6.67;6.67;;;;;19.82;56.17;102268.38;5092962;27;45626;-68
2022/05/27 10:07:39;;;;;;;;;7.00;7.00;;;;;19.98;56.84;102270.28;5069619;28;45612;-71
2022/05/27 10:10:19;;;;;;;;;6.67;6.67;;;;;20.00;56.14;102261.84;5070955;28;45345;-70
2022/05/27 10:12:46;;;;;;;;;7.33;5.00;;;;;20.19;55.66;102254.03;5071397;28;45823;-69
2022/05/27 10:15:37;;;;;;;;;4.00;4.00;;;;;20.49;55.51;102254.34;5066653;27;45586;-70
2022/05/27 10:18:31;;;;;;;;;5.00;5.00;;;;;21.08;53.39;102258.44;5083878;27;45715;-70
2022/05/27 10:21:03;;;;;;;;;6.00;6.00;;;;;21.22;52.91;102245.78;5050587;28;45437;-69
2022/05/27 10:23:34;;;;;;;;;6.33;6.00;;;;;21.33;53.26;102257.28;5073220;27;46329;-69
2022/05/27 10:26:18;;;;;;;;;6.00;5.00;;;;;21.06;52.54;102262.41;5080501;28;45358;-69
2022/05/27 10:28:45;;;;;;;;;11.00;9.00;;;;;21.02;53.11;102256.41;5072351;28;45470;-68
2022/05/27 10:31:16;;;;;;;;;4.67;3.67;;;;;20.83;53.73;102249.38;5079367;27;45540;-69
2022/05/27 10:33:49;;;;;;;;;4.33;4.33;;;;;21.01;53.66;102246.38;5063995;28;46498;-69
2022/05/27 10:36:37;;;;;;;;;8.00;6.67;;;;;21.09;53.96;102251.00;5075006;28;45322;-70
2022/05/27 10:39:10;;;;;;;;;7.33;7.33;;;;;20.94;52.74;102250.91;5074090;27;45487;-69
2022/05/27 10:42:03;;;;;;;;;5.00;5.00;;;;;20.53;54.24;102252.94;5075548;28;45840;-70
2022/05/27 10:44:59;;;;;;;;;5.33;5.33;;;;;20.07;56.05;102247.16;5065732;28;46098;-71
2022/05/27 10:47:36;;;;;;;;;12.67;11.33;;;;;20.30;55.45;102254.72;5068384;28;45543;-69
2022/05/27 10:50:21;;;;;;;;;8.33;6.00;;;;;20.48;54.84;102252.63;5075212;27;45351;-69
2022/05/27 10:52:56;;;;;;;;;7.33;6.00;;;;;20.56;54.85;102247.94;5070459;28;45516;-69
2022/05/27 10:55:36;;;;;;;;;8.00;6.33;;;;;20.85;54.61;102251.97;5071204;27;46143;-69
2022/05/27 11:04:31;;;;;;;;;8.33;8.33;;;;;21.43;52.58;102257.03;5080279;28;45396;-69
2022/05/27 11:07:30;;;;;;;;;6.00;6.00;;;;;21.38;52.43;102264.19;5069997;28;46613;-69
2022/05/27 11:10:17;;;;;;;;;7.67;7.67;;;;;21.51;51.96;102254.22;5072789;27;45502;-69
2022/05/27 11:16:15;;;;;;;;;10.67;7.00;;;;;21.05;53.00;102238.56;5068840;28;45479;-68
2022/05/27 11:19:01;;;;;;;;;8.67;5.00;;;;;20.86;54.04;102254.56;5078883;27;45524;-69
2022/05/27 11:21:49;;;;;;;;;6.00;6.00;;;;;20.59;54.28;102252.25;5081021;27;45514;-70
2022/05/27 11:24:42;;;;;;;;;2.67;2.67;;;;;20.77;54.07;102255.63;5074538;28;45411;-68
2022/05/27 11:27:14;;;;;;;;;5.00;5.00;;;;;20.84;53.95;102253.88;5081918;27;45420;-69
2022/05/27 11:30:04;;;;;;;;;7.33;7.33;;;;;20.66;54.10;102256.03;5068242;27;45445;-68
2022/05/27 11:32:56;;;;;;;;;8.00;6.67;;;;;20.91;54.21;102246.59;5068623;28;45559;-69
2022/05/27 11:35:35;;;;;;;;;7.00;6.33;;;;;20.71;53.98;102239.78;5069076;28;45262;-69
2022/05/27 11:38:31;;;;;;;;;7.00;5.33;;;;;20.83;54.35;102241.09;5070389;28;45424;-69
2022/05/27 11:41:04;;;;;;;;;6.00;6.00;;;;;20.95;53.81;102242.44;5068429;28;46214;-69
2022/05/27 11:43:37;;;;;;;;;8.00;6.67;;;;;20.82;53.51;102242.13;5076226;28;45478;-69
2022/05/27 11:46:22;;;;;;;;;5.00;5.00;;;;;20.86;53.65;102235.22;5076925;28;45546;-68
2022/05/27 11:49:03;;;;;;;;;5.33;5.33;;;;;21.08;53.18;102235.47;5073630;27;45444;-72
2022/05/27 11:51:46;;;;;;;;;6.00;6.00;;;;;21.18;53.17;102234.25;5071159;28;46151;-70
2022/05/27 11:54:18;;;;;;;;;7.33;7.33;;;;;21.09;53.67;102235.28;5074400;28;45332;-71
2022/05/27 11:56:52;;;;;;;;;6.00;6.00;;;;;21.07;53.39;102226.31;5067783;28;45601;-70
2022/05/27 11:59:17;;;;;;;;;9.33;9.33;;;;;21.16;53.14;102211.44;5066640;27;45478;-71
2022/05/27 12:01:55;;;;;;;;;7.33;7.33;;;;;21.46;52.84;102223.50;5069547;28;45527;-70
2022/05/27 12:04:26;;;;;;;;;7.00;7.00;;;;;21.61;52.54;102231.88;5079046;27;45475;-70
2022/05/27 12:07:04;;;;;;;;;9.00;9.00;;;;;21.50;52.21;102224.84;5070933;28;45377;-70
2022/05/27 12:09:38;;;;;;;;;7.00;7.00;;;;;21.17;53.02;102226.13;5077948;27;45300;-70
2022/05/27 12:12:11;;;;;;;;;8.67;8.67;;;;;21.13;53.15;102230.25;5062570;28;46996;-70
2022/05/27 12:15:04;;;;;;;;;8.67;8.67;;;;;21.05;53.91;102228.38;5080933;28;45461;-70
2022/05/27 12:17:40;;;;;;;;;8.67;8.67;;;;;21.25;53.14;102223.31;5076891;27;45747;-71
2022/05/27 12:20:07;;;;;;;;;11.33;8.00;;;;;21.17;54.33;102223.34;5068928;27;45609;-70
2022/05/27 12:22:35;;;;;;;;;6.67;6.67;;;;;20.90;54.26;102221.91;5070343;28;45574;-71